Terminal Aerodrome Forecast
Issued by NWS

Home | Current Version | Previous Version | Text Only | Print | Product List | Glossary On
Versions: 1 2 3 4 5 6 7 8 9 10 11 12 13 14 15 16
000
FTUS44 KLZK 182320
TAFHRO
TAF
KHRO 182320Z 1900/1924 16016G22KT P6SM OVC025 WS020/22045KT
     FM190200 17017G24KT P6SM OVC015 WS020/22055KT
     FM190600 17015G22KT P6SM VCSH OVC015 WS020/21055KT
      TEMPO 1910/1914 4SM BR BKN008=

USA.gov is the U.S. government's official web portal to all federal, state and local government web resources and services.